Time;durP1;ratioP1;P1;durP2;ratioP2;P2;SDS_P1;SDS_P2;PMS_P1;PMS_P2;Temp;Humidity;BMP_temperature;BMP_pressure;BME280_temperature;BME280_humidity;BME280_pressure;Samples;Min_cycle;Max_cycle;Signal;HPM_P1;HPM_P2
2021/03/21 00:00:39;;;;;;;11.27;5.22;;;;;;;2.10;39.53;100541.97;4476664;32;34223;-80
2021/03/21 00:03:08;;;;;;;11.77;5.60;;;;;;;2.16;39.26;100534.19;4478063;32;34708;-80
2021/03/21 00:05:36;;;;;;;12.13;5.40;;;;;;;1.92;39.54;100544.53;4464795;32;34649;-81
2021/03/21 00:08:12;;;;;;;8.07;5.00;;;;;;;2.27;38.29;100542.00;4452938;32;33127;-80
2021/03/21 00:10:40;;;;;;;9.65;5.18;;;;;;;2.28;38.27;100530.75;4464480;32;33451;-80
2021/03/21 00:13:07;;;;;;;11.85;4.62;;;;;;;1.89;38.71;100544.50;4465382;32;34501;-80
2021/03/21 00:15:34;;;;;;;7.80;5.53;;;;;;;1.86;38.87;100536.72;4466535;32;33525;-80
2021/03/21 00:18:02;;;;;;;11.12;5.07;;;;;;;2.12;38.75;100537.63;4480371;32;33128;-80
2021/03/21 00:20:33;;;;;;;8.30;4.45;;;;;;;1.74;39.82;100529.69;4465270;32;33661;-80
2021/03/21 00:23:02;;;;;;;9.60;4.90;;;;;;;2.34;37.72;100527.28;4478786;32;34704;-81
2021/03/21 00:25:32;;;;;;;7.35;4.50;;;;;;;1.82;39.27;100529.75;4465038;32;35349;-80
2021/03/21 00:28:02;;;;;;;5.75;4.15;;;;;;;2.19;37.88;100534.19;4461010;32;35219;-80
2021/03/21 00:30:36;;;;;;;8.55;4.53;;;;;;;1.80;39.27;100524.50;4467606;32;33324;-80
2021/03/21 00:33:05;;;;;;;7.60;4.35;;;;;;;1.88;38.70;100525.41;4465916;32;33275;-80
2021/03/21 00:35:33;;;;;;;7.45;4.22;;;;;;;1.79;38.96;100515.84;4464651;32;34788;-80
2021/03/21 00:38:04;;;;;;;10.10;5.00;;;;;;;2.39;37.48;100515.97;4467515;32;34951;-81
2021/03/21 00:40:32;;;;;;;7.90;4.30;;;;;;;1.92;39.26;100508.94;4480110;32;34246;-81
2021/03/21 00:43:00;;;;;;;7.43;4.43;;;;;;;1.62;39.39;100509.72;4479789;32;33287;-81
2021/03/21 00:45:28;;;;;;;8.15;4.25;;;;;;;1.83;39.68;100513.25;4464377;32;33445;-81
2021/03/21 00:47:55;;;;;;;10.93;4.43;;;;;;;1.99;37.58;100504.59;4479753;32;32033;-81
2021/03/21 00:50:29;;;;;;;8.77;4.57;;;;;;;1.81;38.54;100504.56;4477456;32;33219;-80
2021/03/21 00:52:57;;;;;;;8.50;4.32;;;;;;;1.90;38.63;100501.97;4467246;32;33423;-81
2021/03/21 00:55:26;;;;;;;8.13;5.10;;;;;;;1.56;39.32;100494.06;4481540;32;33655;-81
2021/03/21 00:57:54;;;;;;;8.55;4.32;;;;;;;1.56;38.45;100494.06;4467308;32;34074;-82
2021/03/21 01:00:27;;;;;;;7.72;4.05;;;;;;;1.83;37.90;100495.88;4475374;32;33302;-81
2021/03/21 01:02:55;;;;;;;6.53;3.83;;;;;;;1.96;37.71;100488.97;4479199;32;33471;-81
2021/03/21 01:05:27;;;;;;;14.02;5.75;;;;;;;2.13;37.17;100492.47;4466768;32;36020;-81
2021/03/21 01:07:56;;;;;;;9.70;5.35;;;;;;;1.56;38.95;100491.44;4461840;32;35394;-81
2021/03/21 01:10:26;;;;;;;10.18;5.05;;;;;;;1.64;38.94;100492.34;4464366;32;33121;-81
2021/03/21 01:12:55;;;;;;;8.55;4.20;;;;;;;1.96;37.81;100483.78;4463309;32;33780;-80
2021/03/21 01:15:25;;;;;;;9.38;3.60;;;;;;;2.09;37.68;100485.53;4477925;32;33402;-80
2021/03/21 01:17:53;;;;;;;8.82;4.15;;;;;;;2.01;38.00;100482.91;4482428;31;34204;-80
2021/03/21 01:20:23;;;;;;;7.78;4.47;;;;;;;1.79;37.94;100489.78;4468300;32;33813;-80
2021/03/21 01:22:52;;;;;;;8.68;4.45;;;;;;;2.03;37.65;100486.38;4478569;32;33733;-80
2021/03/21 01:25:24;;;;;;;7.05;4.25;;;;;;;2.20;36.33;100481.22;4455215;32;34400;-81
2021/03/21 01:27:57;;;;;;;9.13;3.78;;;;;;;1.94;37.53;100475.06;4477309;32;32759;-82
2021/03/21 01:30:25;;;;;;;4.78;3.45;;;;;;;1.88;37.33;100475.06;4452623;32;34543;-82
2021/03/21 01:32:54;;;;;;;8.52;3.87;;;;;;;2.01;36.42;100472.50;4480411;32;34500;-82
2021/03/21 01:35:22;;;;;;;8.38;3.92;;;;;;;2.21;36.20;100474.25;4455274;32;35397;-82
2021/03/21 01:37:49;;;;;;;8.25;4.12;;;;;;;2.01;36.08;100466.41;4480805;32;33281;-81
2021/03/21 01:40:18;;;;;;;9.02;3.80;;;;;;;1.54;37.67;100465.44;4467293;32;33496;-82
2021/03/21 01:42:47;;;;;;;7.65;3.62;;;;;;;1.74;37.17;100469.81;4466872;32;34074;-80
2021/03/21 01:45:38;;;;;;;9.15;4.25;;;;;;;1.87;37.58;100460.31;4461463;32;34674;-80
2021/03/21 01:48:32;;;;;;;7.90;3.78;;;;;;;1.99;36.42;100455.13;4464348;32;35488;-80
2021/03/21 01:51:03;;;;;;;7.40;4.40;;;;;;;1.82;36.90;100468.13;4478268;32;33280;-80
2021/03/21 01:53:33;;;;;;;7.45;4.20;;;;;;;2.27;35.93;100463.81;4477108;32;33844;-80
2021/03/21 01:56:01;;;;;;;6.95;3.90;;;;;;;2.18;35.81;100456.88;4466162;32;33576;-80
2021/03/21 01:58:29;;;;;;;7.85;3.90;;;;;;;2.20;35.78;100462.09;4466481;32;33194;-80
2021/03/21 02:01:00;;;;;;;9.68;4.00;;;;;;;1.72;36.84;100454.22;4480146;32;34725;-80
2021/03/21 02:03:27;;;;;;;7.60;4.05;;;;;;;1.52;37.32;100459.34;4454069;32;34899;-80
2021/03/21 02:06:11;;;;;;;8.63;4.40;;;;;;;1.26;38.27;100451.44;4479175;32;33340;-80
2021/03/21 02:08:50;;;;;;;8.35;3.83;;;;;;;1.88;36.52;100455.09;4465335;32;32501;-80
2021/03/21 02:11:47;;;;;;;8.75;4.10;;;;;;;1.84;36.47;100453.34;4464798;32;33962;-80
2021/03/21 02:14:39;;;;;;;6.30;4.10;;;;;;;1.90;36.41;100442.97;4479506;32;33743;-81
2021/03/21 02:17:18;;;;;;;7.03;4.05;;;;;;;1.77;36.33;100449.00;4466131;32;34035;-81
2021/03/21 02:20:11;;;;;;;5.70;3.50;;;;;;;1.20;37.82;100443.59;4467432;32;33803;-81
2021/03/21 02:22:50;;;;;;;8.60;3.92;;;;;;;1.30;38.12;100441.06;4478976;32;33455;-81
2021/03/21 02:25:55;;;;;;;7.95;3.55;;;;;;;1.29;37.14;100432.38;4456534;32;35746;-79
2021/03/21 02:29:04;;;;;;;6.28;3.75;;;;;;;1.16;38.07;100423.63;4468998;32;33435;-80
2021/03/21 02:31:39;;;;;;;8.70;4.65;;;;;;;1.06;38.47;100415.81;4464372;32;34449;-80
2021/03/21 02:34:13;;;;;;;10.43;4.28;;;;;;;1.41;36.98;100426.34;4465776;32;33339;-80
2021/03/21 02:36:48;;;;;;;10.23;3.67;;;;;;;1.07;37.97;100425.34;4478161;32;34575;-80
2021/03/21 02:39:35;;;;;;;4.85;3.90;;;;;;;1.06;38.07;100416.66;4479183;32;33311;-80
2021/03/21 02:42:25;;;;;;;9.02;3.83;;;;;;;0.69;38.83;100419.06;4454155;32;34240;-80
2021/03/21 02:45:02;;;;;;;8.80;3.97;;;;;;;1.12;38.37;100414.09;4493018;31;33617;-83
2021/03/21 02:47:31;;;;;;;6.10;3.20;;;;;;;1.18;38.10;100416.69;4457365;32;34210;-80
2021/03/21 02:50:04;;;;;;;9.25;4.35;;;;;;;1.08;37.98;100417.53;4475188;32;33687;-80
2021/03/21 02:52:45;;;;;;;8.50;3.58;;;;;;;1.25;38.10;100426.28;4480261;32;33265;-80
2021/03/21 02:55:22;;;;;;;7.82;4.20;;;;;;;1.00;38.66;100421.84;4464680;32;34611;-81
2021/03/21 02:58:09;;;;;;;8.45;4.60;;;;;;;1.46;37.61;100419.41;4479660;32;36041;-80
2021/03/21 03:00:42;;;;;;;9.25;4.53;;;;;;;1.20;38.41;100422.81;4465899;32;35199;-80
2021/03/21 03:03:11;;;;;;;9.30;4.60;;;;;;;1.39;38.06;100423.75;4467502;32;33178;-79
2021/03/21 03:05:49;;;;;;;6.97;4.32;;;;;;;1.30;38.41;100409.84;4460607;32;196461;-79
2021/03/21 03:08:29;;;;;;;6.60;3.80;;;;;;;1.31;38.21;100403.75;4476551;32;33744;-79
2021/03/21 03:11:03;;;;;;;6.97;4.10;;;;;;;1.63;37.52;100402.13;4476859;32;33673;-79
2021/03/21 03:13:36;;;;;;;9.30;4.28;;;;;;;1.52;37.05;100411.66;4465278;32;34983;-79
2021/03/21 03:16:22;;;;;;;9.07;4.85;;;;;;;0.95;38.38;100400.13;4464523;32;34439;-79
2021/03/21 03:19:45;;;;;;;8.68;4.10;;;;;;;0.87;38.85;100409.63;4464749;32;33544;-79
2021/03/21 03:22:17;;;;;;;8.95;4.10;;;;;;;0.81;39.25;100402.69;4413651;32;33312;-79
2021/03/21 03:24:57;;;;;;;9.15;4.43;;;;;;;1.08;38.74;100401.94;4472980;31;34362;-79
2021/03/21 03:27:43;;;;;;;10.95;5.03;;;;;;;0.45;39.82;100392.91;4477673;32;34463;-82
2021/03/21 03:30:16;;;;;;;8.32;4.10;;;;;;;0.68;39.42;100393.94;4460460;32;34205;-79
2021/03/21 03:32:45;;;;;;;8.20;4.62;;;;;;;0.16;40.40;100401.38;4453125;32;34336;-79
2021/03/21 03:35:18;;;;;;;12.52;4.53;;;;;;;0.58;40.35;100386.94;4478775;32;32855;-79
2021/03/21 03:37:45;;;;;;;8.70;4.30;;;;;;;0.05;40.87;100391.72;4464710;32;34211;-79
2021/03/21 03:40:14;;;;;;;6.45;3.65;;;;;;;0.39;40.65;100393.75;4464911;32;34734;-79
2021/03/21 03:43:14;;;;;;;7.75;4.25;;;;;;;0.12;41.05;100403.94;4464571;32;33755;-79
2021/03/21 03:45:51;;;;;;;10.70;4.62;;;;;;;0.41;40.91;100388.56;4454443;32;32662;-79
2021/03/21 03:48:30;;;;;;;10.18;4.50;;;;;;;0.64;39.91;100388.72;4461057;32;35984;-79
2021/03/21 03:51:31;;;;;;;7.57;4.20;;;;;;;0.41;40.89;100380.75;4478211;32;33473;-80
2021/03/21 03:54:13;;;;;;;7.68;4.37;;;;;;;0.41;40.76;100381.62;4469094;32;33365;-80
2021/03/21 03:56:51;;;;;;;10.65;4.18;;;;;;;0.40;41.28;100379.91;4481863;32;33933;-80
2021/03/21 03:59:21;;;;;;;9.25;4.57;;;;;;;0.37;40.77;100376.41;4455519;32;34100;-80
2021/03/21 04:01:50;;;;;;;7.72;3.90;;;;;;;0.06;41.29;100368.41;4481602;32;34659;-80
2021/03/21 04:04:28;;;;;;;7.50;4.37;;;;;;;0.09;41.07;100368.41;4481045;32;33589;-80
2021/03/21 04:07:03;;;;;;;8.30;4.53;;;;;;;-0.03;42.01;100373.50;4479052;32;33238;-80
2021/03/21 04:09:46;;;;;;;12.10;4.62;;;;;;;0.03;41.75;100365.75;4455132;32;34431;-80
2021/03/21 04:12:24;;;;;;;7.30;4.90;;;;;;;0.31;40.96;100368.56;4477637;32;34731;-81
2021/03/21 04:14:57;;;;;;;8.95;4.47;;;;;;;0.38;40.90;100357.34;4479849;32;34368;-80
2021/03/21 04:17:26;;;;;;;;;;;;;;;0.06;41.22;100355.41;4481335;32;34372;-79
2021/03/21 04:20:05;;;;;;;7.78;4.22;;;;;;;-0.21;41.83;100356.06;4468645;32;34981;-78
2021/03/21 04:22:38;;;;;;;10.95;4.25;;;;;;;0.17;41.25;100356.34;4467716;32;34110;-78
2021/03/21 04:25:12;;;;;;;7.20;4.45;;;;;;;0.09;41.76;100345.03;4481021;32;33374;-79
2021/03/21 04:27:43;;;;;;;9.23;4.70;;;;;;;0.03;42.04;100345.00;4466239;32;35175;-79
2021/03/21 04:30:12;;;;;;;;;;;;;;;-0.08;41.60;100347.50;4468192;32;33609;-80
2021/03/21 04:32:48;;;;;;;8.32;4.43;;;;;;;0.30;40.76;100346.06;4467695;32;32990;-80
2021/03/21 04:35:25;;;;;;;8.57;5.05;;;;;;;0.29;40.88;100342.59;4480403;32;33680;-79
2021/03/21 04:38:17;;;;;;;8.02;4.60;;;;;;;-0.16;41.68;100343.97;4467576;32;34383;-80
2021/03/21 04:40:45;;;;;;;11.20;5.07;;;;;;;0.18;41.23;100337.31;4478147;32;33758;-80
2021/03/21 04:43:24;;;;;;;10.70;4.62;;;;;;;0.35;40.72;100333.97;4466982;32;34113;-80
2021/03/21 04:45:55;;;;;;;8.43;4.30;;;;;;;0.23;41.38;100330.41;4468375;32;34757;-80
2021/03/21 04:48:26;;;;;;;8.70;4.72;;;;;;;-0.01;41.92;100330.25;4453299;32;33659;-80
2021/03/21 04:51:18;;;;;;;10.57;4.90;;;;;;;-0.10;41.71;100332.78;4467166;32;33345;-80
2021/03/21 04:53:46;;;;;;;10.35;4.53;;;;;;;0.31;41.41;100322.69;4464542;32;35205;-79
2021/03/21 04:56:23;;;;;;;10.07;5.35;;;;;;;0.00;42.27;100326.81;4466656;32;33319;-80
2021/03/21 04:58:57;;;;;;;7.82;4.60;;;;;;;0.33;41.38;100320.09;4480209;32;33335;-79
2021/03/21 05:01:27;;;;;;;10.05;4.90;;;;;;;0.39;41.04;100322.75;4454102;32;34777;-79
2021/03/21 05:04:15;;;;;;;8.27;4.55;;;;;;;0.49;40.72;100328.00;4465280;32;33761;-80
2021/03/21 05:06:59;;;;;;;10.15;4.50;;;;;;;0.44;40.40;100327.09;4465094;32;34871;-79
2021/03/21 05:09:38;;;;;;;8.13;4.30;;;;;;;-0.15;41.70;100329.28;4482676;32;33098;-79
2021/03/21 05:12:25;;;;;;;9.80;4.18;;;;;;;0.37;40.76;100327.91;4465205;32;34773;-79
2021/03/21 05:15:03;;;;;;;8.63;5.18;;;;;;;0.13;41.78;100333.81;4481064;32;33169;-79
2021/03/21 05:17:55;;;;;;;9.38;4.55;;;;;;;0.20;41.62;100322.63;4470353;32;33151;-79
2021/03/21 05:20:43;;;;;;;8.38;4.55;;;;;;;-0.06;41.86;100317.22;4479378;32;33090;-80
2021/03/21 05:23:31;;;;;;;10.18;4.87;;;;;;;0.31;41.09;100327.88;4468513;32;35672;-80
2021/03/21 05:26:09;;;;;;;9.10;4.53;;;;;;;0.41;40.77;100321.00;4479000;32;34163;-81
2021/03/21 05:28:39;;;;;;;7.12;3.92;;;;;;;0.24;41.13;100332.19;4457853;32;34436;-80
2021/03/21 05:31:07;;;;;;;8.88;4.18;;;;;;;0.02;42.27;100335.47;4481902;32;32781;-80
2021/03/21 05:33:34;;;;;;;9.93;5.10;;;;;;;0.52;40.46;100324.53;4466541;32;34541;-80
2021/03/21 05:36:12;;;;;;;12.90;5.57;;;;;;;0.24;41.49;100332.19;4465906;32;35878;-80
2021/03/21 05:38:43;;;;;;;8.75;4.78;;;;;;;0.06;42.03;100329.44;4467706;32;34628;-80
2021/03/21 05:41:34;;;;;;;12.80;5.28;;;;;;;0.53;41.10;100326.28;4463902;32;32577;-80
2021/03/21 05:44:21;;;;;;;10.15;5.22;;;;;;;0.72;40.63;100319.44;4464927;32;32702;-80
2021/03/21 05:47:03;;;;;;;8.70;4.60;;;;;;;0.47;40.59;100327.09;4470668;31;32786;-80
2021/03/21 05:50:02;;;;;;;15.77;6.00;;;;;;;0.64;40.84;100332.41;4474838;32;33502;-80
2021/03/21 05:52:48;;;;;;;8.35;4.78;;;;;;;0.35;41.66;100323.56;4469166;32;32053;-80
2021/03/21 05:55:42;;;;;;;8.93;4.53;;;;;;;0.76;40.76;100326.41;4472469;32;33541;-80
2021/03/21 05:58:33;;;;;;;10.43;4.65;;;;;;;0.49;41.47;100321.94;4469519;31;34708;-80
2021/03/21 06:01:11;;;;;;;10.70;4.85;;;;;;;0.86;41.05;100319.50;4474556;31;33469;-80
2021/03/21 06:04:16;;;;;;;10.55;4.97;;;;;;;0.79;40.90;100320.34;4462618;32;32491;-80
2021/03/21 06:07:21;;;;;;;8.40;4.87;;;;;;;0.65;41.16;100318.53;4472741;32;33255;-81
2021/03/21 06:10:11;;;;;;;7.57;4.25;;;;;;;1.37;40.01;100320.50;4470778;32;32757;-80
2021/03/21 06:13:03;;;;;;;11.50;5.20;;;;;;;1.22;40.53;100327.41;4479172;31;33237;-80
2021/03/21 06:15:42;;;;;;;;;;;;;;;1.41;40.24;100323.12;4473301;32;33138;-80
2021/03/21 06:18:22;;;;;;;11.10;4.78;;;;;;;1.39;40.25;100318.78;4460600;32;33619;-80
2021/03/21 06:21:35;;;;;;;11.52;5.25;;;;;;;1.54;40.07;100321.41;4448190;32;35804;-80
2021/03/21 06:24:11;;;;;;;11.93;5.37;;;;;;;1.49;40.38;100316.19;4465770;32;34200;-80
2021/03/21 06:26:50;;;;;;;15.73;6.90;;;;;;;1.42;40.13;100313.56;4462480;32;33908;-79
2021/03/21 06:29:34;;;;;;;15.75;5.95;;;;;;;1.77;38.87;100316.22;4459826;32;34630;-80
2021/03/21 06:32:26;;;;;;;10.75;5.32;;;;;;;1.62;39.70;100313.62;4474002;32;33605;-80
2021/03/21 06:35:05;;;;;;;10.82;5.90;;;;;;;1.57;40.16;100303.22;4471915;32;33157;-80
2021/03/21 06:37:52;;;;;;;11.10;5.35;;;;;;;1.28;40.49;100295.34;4460110;32;33729;-80
2021/03/21 06:40:30;;;;;;;11.10;5.28;;;;;;;1.78;38.85;100298.00;4471319;32;33777;-80
2021/03/21 06:43:21;;;;;;;10.05;5.22;;;;;;;1.73;39.17;100291.06;4461796;32;33183;-80
2021/03/21 06:46:00;;;;;;;11.07;5.03;;;;;;;1.85;39.67;100300.59;4473369;32;33601;-80
2021/03/21 06:48:56;;;;;;;10.75;5.00;;;;;;;2.11;38.25;100300.56;4458607;32;31995;-80
2021/03/21 06:51:47;;;;;;;10.00;5.00;;;;;;;2.21;38.70;100300.56;4468043;32;33408;-80
2021/03/21 06:54:35;;;;;;;8.52;5.10;;;;;;;2.31;38.29;100288.37;4470939;32;33515;-80
2021/03/21 06:57:02;;;;;;;8.55;4.62;;;;;;;1.92;39.30;100294.53;4473417;32;33505;-80
2021/03/21 06:59:45;;;;;;;7.85;4.68;;;;;;;2.23;38.80;100296.22;4468287;32;34870;-79
2021/03/21 07:02:15;;;;;;;;;;;;;;;2.36;38.69;100283.16;4452368;32;34808;-81
2021/03/21 07:05:25;;;;;;;9.30;4.32;;;;;;;2.74;37.43;100289.09;4474250;32;32795;-80
2021/03/21 07:08:17;;;;;;;10.63;5.75;;;;;;;2.57;38.26;100288.31;4454687;32;35311;-80
2021/03/21 07:11:26;;;;;;;8.25;4.62;;;;;;;2.74;38.13;100294.31;4465833;32;34907;-80
2021/03/21 07:14:15;;;;;;;11.57;5.35;;;;;;;3.04;36.31;100290.72;4476331;32;33021;-80
2021/03/21 07:17:14;;;;;;;8.50;4.87;;;;;;;2.64;37.79;100281.31;4475562;32;33719;-80
2021/03/21 07:20:26;;;;;;;8.77;4.25;;;;;;;3.03;36.96;100280.28;4474596;32;34382;-80
2021/03/21 07:23:20;;;;;;;7.32;4.15;;;;;;;3.22;36.01;100270.59;4431411;32;33083;-80
2021/03/21 07:25:58;;;;;;;8.15;3.95;;;;;;;3.11;35.89;100281.09;4429042;32;33342;-80
2021/03/21 07:28:43;;;;;;;9.88;4.55;;;;;;;2.97;36.81;100275.94;4458271;32;33423;-80
2021/03/21 07:31:34;;;;;;;9.45;4.47;;;;;;;3.13;36.69;100276.72;4463952;32;33482;-79
2021/03/21 07:34:33;;;;;;;10.00;4.82;;;;;;;3.25;35.94;100276.66;4472498;32;34477;-80
2021/03/21 07:37:25;;;;;;;9.07;5.03;;;;;;;3.25;36.58;100271.44;4459480;32;32957;-80
2021/03/21 07:40:11;;;;;;;7.22;4.22;;;;;;;3.60;35.67;100267.72;4459712;32;33843;-80
2021/03/21 07:42:42;;;;;;;9.00;4.25;;;;;;;3.54;35.92;100268.63;4470843;32;32377;-80
2021/03/21 07:45:32;;;;;;;8.68;4.68;;;;;;;3.80;35.04;100265.81;4447878;32;34688;-80
2021/03/21 07:48:08;;;;;;;9.23;5.22;;;;;;;3.93;34.97;100270.91;4473838;32;31882;-80
2021/03/21 07:50:56;;;;;;;7.03;3.90;;;;;;;3.96;34.61;100265.69;4470042;32;33808;-80
2021/03/21 07:53:45;;;;;;;10.27;4.97;;;;;;;3.79;34.73;100265.81;4460854;32;33526;-80
2021/03/21 07:56:17;;;;;;;7.90;4.18;;;;;;;3.90;34.45;100255.28;4460223;32;34657;-80
2021/03/21 07:58:48;;;;;;;7.10;3.80;;;;;;;3.88;34.63;100250.06;4459230;32;32952;-80
2021/03/21 08:01:18;;;;;;;7.97;4.15;;;;;;;4.14;34.48;100247.22;4448281;32;33116;-80
2021/03/21 08:04:01;;;;;;;7.95;3.95;;;;;;;3.83;34.68;100252.72;4460884;32;34441;-80
2021/03/21 08:06:35;;;;;;;;;;;;;;;4.42;33.03;100249.53;4447718;32;34680;-80
2021/03/21 08:09:16;;;;;;;5.40;4.03;;;;;;;4.18;33.33;100256.75;4461745;32;34217;-81
2021/03/21 08:11:49;;;;;;;7.37;3.60;;;;;;;4.58;32.62;100236.22;4449607;32;34372;-80
2021/03/21 08:14:27;;;;;;;5.03;3.65;;;;;;;4.78;33.00;100233.34;4458966;32;34512;-80
2021/03/21 08:16:59;;;;;;;7.28;4.12;;;;;;;4.30;33.25;100232.22;4433830;32;32986;-81
2021/03/21 08:19:29;;;;;;;7.80;3.28;;;;;;;4.11;33.61;100223.72;4448721;32;32664;-81
2021/03/21 08:21:57;;;;;;;6.32;3.80;;;;;;;4.71;32.24;100221.25;4447839;32;34286;-81
2021/03/21 08:24:31;;;;;;;7.32;3.45;;;;;;;5.05;30.29;100216.41;4434768;32;34632;-82
2021/03/21 08:27:01;;;;;;;6.75;3.45;;;;;;;4.87;30.90;100219.28;4433029;32;33947;-81
2021/03/21 08:29:53;;;;;;;4.55;2.72;;;;;;;5.01;30.54;100213.87;4443034;32;34460;-81
2021/03/21 08:32:21;;;;;;;5.18;2.95;;;;;;;5.42;29.18;100202.78;4450076;32;35380;-81
2021/03/21 08:34:49;;;;;;;6.47;3.40;;;;;;;5.21;30.67;100201.34;4471995;32;35593;-81
2021/03/21 08:37:19;;;;;;;5.93;3.15;;;;;;;4.97;31.05;100201.72;4461148;32;32896;-82
2021/03/21 08:39:50;;;;;;;9.27;4.30;;;;;;;5.27;31.28;100196.03;4459588;32;33911;-82
2021/03/21 08:42:27;;;;;;;6.25;4.22;;;;;;;5.84;30.64;100188.06;4470946;32;33829;-81
2021/03/21 08:45:07;;;;;;;7.12;4.15;;;;;;;5.69;30.48;100183.09;4465112;32;35623;-81
2021/03/21 08:47:34;;;;;;;4.97;3.60;;;;;;;5.70;30.19;100186.56;4455205;32;35549;-82
2021/03/21 08:50:04;;;;;;;7.72;3.10;;;;;;;5.39;30.59;100185.34;4467720;32;32459;-82
2021/03/21 08:52:38;;;;;;;8.13;3.78;;;;;;;5.43;30.77;100186.16;4472959;32;33753;-82
2021/03/21 08:55:21;;;;;;;7.93;3.40;;;;;;;6.00;30.41;100166.84;4477351;32;33331;-82
2021/03/21 08:57:49;;;;;;;8.32;3.37;;;;;;;6.43;29.45;100165.97;4457177;32;33866;-82
2021/03/21 09:00:21;;;;;;;3.87;2.65;;;;;;;6.61;28.72;100161.22;4462710;32;34381;-82
2021/03/21 09:02:49;;;;;;;2.97;2.67;;;;;;;6.85;28.47;100161.56;4463009;32;34304;-82
2021/03/21 09:05:20;;;;;;;2.60;2.35;;;;;;;6.62;27.50;100159.44;4455442;32;33885;-81
2021/03/21 09:07:50;;;;;;;5.10;3.12;;;;;;;6.75;26.78;100153.03;4445185;32;32561;-81
2021/03/21 09:10:20;;;;;;;4.43;3.20;;;;;;;6.08;28.77;100157.94;4452549;32;34675;-81
2021/03/21 09:13:13;;;;;;;7.60;3.12;;;;;;;6.18;28.48;100150.75;4459040;32;33431;-81
2021/03/21 09:15:44;;;;;;;4.37;2.22;;;;;;;6.52;27.27;100145.66;4447354;32;36238;-81
2021/03/21 09:18:17;;;;;;;2.65;2.10;;;;;;;6.52;26.47;100139.56;4458075;32;33245;-82
2021/03/21 09:21:20;;;;;;;4.72;2.37;;;;;;;6.93;26.40;100131.63;4453204;32;37508;-81
2021/03/21 09:24:07;;;;;;;4.75;2.62;;;;;;;7.19;25.98;100119.63;4462003;32;33263;-81
2021/03/21 09:26:38;;;;;;;8.60;2.67;;;;;;;7.27;24.54;100114.19;4435729;32;34852;-81
2021/03/21 09:29:27;;;;;;;4.10;2.40;;;;;;;6.83;25.82;100111.72;4462705;32;32454;-82
2021/03/21 09:31:59;;;;;;;4.45;2.22;;;;;;;6.65;25.82;100109.53;4455049;32;33954;-83
2021/03/21 09:34:49;;;;;;;4.35;2.55;;;;;;;6.31;26.36;100110.25;4461659;32;34427;-83
2021/03/21 09:37:20;;;;;;;5.35;2.67;;;;;;;6.46;26.82;100105.56;4456289;32;34461;-82
2021/03/21 09:40:06;;;;;;;4.85;2.30;;;;;;;6.99;25.86;100091.22;4482500;32;35279;-82
2021/03/21 09:42:34;;;;;;;3.75;2.15;;;;;;;6.77;25.10;100088.25;4456614;32;35583;-82
2021/03/21 09:45:04;;;;;;;5.05;2.50;;;;;;;6.80;26.55;100084.69;4467557;32;33829;-82
2021/03/21 09:47:42;;;;;;;4.53;1.98;;;;;;;6.79;24.33;100078.59;4465952;32;34463;-82
2021/03/21 09:50:33;;;;;;;4.25;2.25;;;;;;;6.73;25.41;100081.34;4470463;32;33180;-82
2021/03/21 09:53:38;;;;;;;3.55;1.95;;;;;;;6.67;26.77;100086.72;4466450;32;33379;-82
2021/03/21 09:56:18;;;;;;;3.75;2.15;;;;;;;7.40;24.25;100087.53;4475415;32;34663;-82
2021/03/21 09:59:24;;;;;;;5.35;2.78;;;;;;;7.90;23.26;100080.06;4454877;32;35120;-82
2021/03/21 10:01:59;;;;;;;3.30;2.03;;;;;;;7.51;22.69;100076.75;4459375;32;33148;-82
2021/03/21 10:04:52;;;;;;;4.95;2.67;;;;;;;7.53;23.03;100066.19;4459213;32;32870;-82
2021/03/21 10:07:41;;;;;;;4.30;2.42;;;;;;;7.87;22.26;100068.75;4452102;32;34638;-83
2021/03/21 10:10:20;;;;;;;5.53;2.25;;;;;;;7.48;21.78;100066.31;4458489;32;34480;-83
2021/03/21 10:12:47;;;;;;;5.10;2.55;;;;;;;8.45;21.96;100048.62;4446358;32;33193;-83
2021/03/21 10:15:24;;;;;;;3.30;2.40;;;;;;;8.34;21.80;100048.09;4452448;32;32300;-82
2021/03/21 10:18:00;;;;;;;3.42;2.55;;;;;;;8.72;21.50;100042.50;4450080;32;33545;-83
2021/03/21 10:20:52;;;;;;;3.85;2.40;;;;;;;8.61;20.63;100046.41;4456242;32;33457;-82
2021/03/21 10:23:35;;;;;;;4.90;2.95;;;;;;;8.63;20.47;100042.78;4450950;32;34006;-83
2021/03/21 10:26:07;;;;;;;3.37;2.60;;;;;;;8.31;21.03;100035.00;4466073;31;36061;-82
2021/03/21 10:28:40;;;;;;;4.45;2.80;;;;;;;8.12;22.21;100025.06;4449729;32;35517;-82
2021/03/21 10:31:23;;;;;;;4.80;2.65;;;;;;;8.43;20.78;100022.38;4461530;32;35805;-82
2021/03/21 10:33:53;;;;;;;5.03;2.58;;;;;;;8.40;21.39;100016.34;4459840;32;35146;-82
2021/03/21 10:36:42;;;;;;;3.42;2.40;;;;;;;8.53;21.59;100006.31;4461238;32;34417;-82
2021/03/21 10:39:29;;;;;;;5.28;2.58;;;;;;;8.67;20.35;100001.44;4476002;32;36833;-82
2021/03/21 10:42:10;;;;;;;6.00;3.55;;;;;;;7.85;21.73;100016.22;4469835;32;35504;-82
2021/03/21 10:44:37;;;;;;;7.05;2.97;;;;;;;8.57;20.50;100002.66;4476706;32;34472;-82
2021/03/21 10:47:11;;;;;;;3.12;2.05;;;;;;;9.17;20.17;99998.91;4475684;32;34081;-82
2021/03/21 10:49:47;;;;;;;4.87;1.95;;;;;;;9.11;20.72;99996.47;4464493;32;35210;-82
2021/03/21 10:52:28;;;;;;;4.12;2.55;;;;;;;9.33;21.18;99994.78;4463489;32;35331;-83
2021/03/21 10:57:41;;;;;;;3.30;2.28;;;;;;;9.27;18.78;99995.03;4478312;32;34987;-83
2021/03/21 11:00:26;;;;;;;4.00;2.28;;;;;;;9.32;18.68;99990.44;4461429;32;35493;-82
2021/03/21 11:03:00;;;;;;;4.15;2.55;;;;;;;9.31;20.89;99988.75;4475050;32;34644;-82
2021/03/21 11:05:45;;;;;;;4.68;2.15;;;;;;;8.30;20.09;99988.56;4478529;32;32308;-83
2021/03/21 11:08:12;;;;;;;3.72;2.83;;;;;;;8.98;20.47;99983.72;4464821;32;36081;-83
2021/03/21 11:10:46;;;;;;;3.20;2.03;;;;;;;9.32;18.33;99972.00;4478542;32;34731;-83
2021/03/21 11:13:15;;;;;;;4.07;2.35;;;;;;;9.65;20.39;99974.34;4479440;32;33749;-82
2021/03/21 11:15:45;;;;;;;4.28;2.22;;;;;;;9.71;20.01;99963.53;4470078;32;34086;-82
2021/03/21 11:18:28;;;;;;;4.50;2.47;;;;;;;10.61;22.28;99940.69;4515865;31;157840;-83
2021/03/21 11:21:19;;;;;;;3.92;2.35;;;;;;;10.61;22.28;99940.69;4474286;31;32544;-83
2021/03/21 11:24:33;;;;;;;4.68;2.70;;;;;;;9.65;18.14;99947.97;4488292;32;36046;-83
2021/03/21 11:27:03;;;;;;;4.28;2.33;;;;;;;9.92;19.18;99930.22;4497075;31;34190;-83
2021/03/21 11:29:38;;;;;;;6.40;2.95;;;;;;;10.00;18.34;99934.28;4490466;31;33461;-83
2021/03/21 11:32:26;;;;;;;6.30;2.83;;;;;;;9.39;20.69;99933.09;4479843;31;34386;-83
2021/03/21 11:35:24;;;;;;;5.70;2.95;;;;;;;9.89;19.22;99918.03;4487523;31;33718;-83
2021/03/21 11:37:55;;;;;;;7.30;3.42;;;;;;;9.53;18.47;99911.50;4501321;31;32681;-83
2021/03/21 11:40:33;;;;;;;4.80;2.37;;;;;;;10.10;19.20;99904.88;4482191;31;32876;-83
2021/03/21 11:43:20;;;;;;;3.65;2.60;;;;;;;9.92;19.09;99903.84;4476706;31;35575;-83
2021/03/21 11:45:49;;;;;;;6.03;2.90;;;;;;;9.81;19.09;99892.84;4506342;31;33687;-83
2021/03/21 11:48:34;;;;;;;4.03;2.67;;;;;;;9.38;19.42;99889.22;4476641;31;33548;-83
2021/03/21 11:51:03;;;;;;;4.37;3.15;;;;;;;9.10;20.18;99886.75;4482671;31;34795;-83
2021/03/21 11:53:35;;;;;;;4.75;2.53;;;;;;;9.16;19.53;99887.41;4474635;31;32806;-83
2021/03/21 11:56:22;;;;;;;4.55;2.60;;;;;;;9.18;19.44;99882.06;4479603;31;33403;-83
2021/03/21 11:59:11;;;;;;;3.22;2.15;;;;;;;9.11;19.91;99877.91;4486402;31;33862;-83
2021/03/21 12:01:45;;;;;;;3.47;2.65;;;;;;;9.27;18.50;99858.00;4486122;31;36191;-83
2021/03/21 12:04:23;;;;;;;5.30;2.53;;;;;;;9.18;19.27;99855.72;4480848;31;32654;-82
2021/03/21 12:06:53;;;;;;;5.37;2.72;;;;;;;9.20;20.75;99856.50;4485870;31;34734;-83
2021/03/21 12:09:30;;;;;;;3.40;2.58;;;;;;;9.74;19.81;99847.44;4466926;31;36765;-83
2021/03/21 12:12:01;;;;;;;3.60;2.67;;;;;;;9.94;20.16;99841.34;4490690;31;33057;-83
2021/03/21 12:14:32;;;;;;;6.00;2.50;;;;;;;10.52;18.67;99829.25;4480622;31;34111;-83
2021/03/21 12:17:18;;;;;;;3.12;2.10;;;;;;;10.62;17.98;99836.78;4504762;31;33689;-83
2021/03/21 12:19:46;;;;;;;4.62;2.12;;;;;;;10.64;18.15;99829.66;4493351;31;33836;-83
2021/03/21 12:22:39;;;;;;;3.37;2.35;;;;;;;10.39;20.88;99817.50;4470101;31;35933;-84
2021/03/21 12:25:23;;;;;;;3.45;2.05;;;;;;;11.16;18.42;99795.63;4473237;31;35478;-83
2021/03/21 12:27:55;;;;;;;5.50;3.45;;;;;;;10.24;19.22;99800.53;4491114;31;33356;-81
2021/03/21 12:30:44;;;;;;;4.12;2.83;;;;;;;11.01;18.23;99791.88;4482555;31;33729;-81